createdAt,value
2022-10-05T00:00:03.812Z,26.10
2022-10-05T00:04:18.090Z,28.40
2022-10-05T00:07:38.964Z,28.50
2022-10-05T00:11:34.362Z,25.20
2022-10-05T00:15:00.948Z,21.40
2022-10-05T00:18:53.105Z,30.50
2022-10-05T00:22:17.247Z,18.90
2022-10-05T00:25:51.194Z,28.10
2022-10-05T00:29:48.205Z,29.30
2022-10-05T00:33:08.852Z,32.10
2022-10-05T00:36:46.482Z,24.90
2022-10-05T00:40:39.246Z,29.40
2022-10-05T00:44:26.740Z,27.00
2022-10-05T00:48:33.325Z,33.10
2022-10-05T00:52:28.898Z,47.00
2022-10-05T00:56:07.635Z,38.40
2022-10-05T00:59:48.950Z,42.80
2022-10-05T01:03:19.056Z,36.80
2022-10-05T01:07:25.142Z,44.00
2022-10-05T01:11:06.095Z,34.90
2022-10-05T01:14:31.753Z,41.10
2022-10-05T01:18:10.075Z,46.90
2022-10-05T01:21:57.316Z,37.60
2022-10-05T01:25:46.605Z,62.20
2022-10-05T01:29:29.750Z,50.90
2022-10-05T01:33:01.721Z,37.10
2022-10-05T01:36:49.905Z,37.70
2022-10-05T01:40:16.143Z,39.90
2022-10-05T01:43:57.013Z,41.10
2022-10-05T01:47:38.697Z,47.20
2022-10-05T01:51:31.116Z,67.20
2022-10-05T01:55:07.805Z,34.60
2022-10-05T01:58:47.004Z,38.20
2022-10-05T02:02:12.366Z,41.40
2022-10-05T02:06:21.906Z,40.40
2022-10-05T02:10:03.158Z,35.10
2022-10-05T02:13:41.449Z,38.60
2022-10-05T02:17:15.258Z,42.20
2022-10-05T02:20:43.390Z,46.40
2022-10-05T02:25:07.139Z,42.60
2022-10-05T02:28:36.184Z,40.60
2022-10-05T02:32:12.738Z,49.30
2022-10-05T02:36:32.782Z,39.00
2022-10-05T02:40:12.712Z,44.20
2022-10-05T02:44:08.421Z,38.00
2022-10-05T02:47:47.316Z,38.00
2022-10-05T02:51:23.095Z,39.30
2022-10-05T02:54:48.429Z,39.90
2022-10-05T02:58:57.378Z,40.00
2022-10-05T03:02:27.869Z,49.90
2022-10-05T03:06:05.983Z,41.60
2022-10-05T03:10:05.119Z,38.00
2022-10-05T03:13:55.215Z,38.00
2022-10-05T03:17:21.135Z,41.70
2022-10-05T03:21:27.086Z,40.00
2022-10-05T03:25:20.718Z,47.60
2022-10-05T03:29:20.341Z,41.20
2022-10-05T03:33:30.170Z,35.00
2022-10-05T03:37:01.167Z,36.70
2022-10-05T03:40:53.834Z,36.60
2022-10-05T03:44:35.333Z,31.50
2022-10-05T03:48:06.698Z,31.60
2022-10-05T03:51:47.511Z,32.50
2022-10-05T03:55:26.378Z,34.30
2022-10-05T03:59:12.687Z,28.50
2022-10-05T04:02:42.876Z,40.80
2022-10-05T04:06:18.697Z,36.70
2022-10-05T04:09:51.588Z,36.20
2022-10-05T04:13:34.178Z,37.10
2022-10-05T04:17:34.341Z,33.30
2022-10-05T04:21:05.135Z,35.20
2022-10-05T04:25:17.159Z,31.00
2022-10-05T04:29:07.116Z,35.50
2022-10-05T04:32:55.124Z,31.00
2022-10-05T04:36:36.758Z,34.40
2022-10-05T04:40:34.114Z,27.50
2022-10-05T04:44:11.077Z,36.60
2022-10-05T04:47:48.365Z,32.50
2022-10-05T04:51:38.551Z,35.50
2022-10-05T04:55:54.018Z,27.40
2022-10-05T04:59:43.260Z,30.00
2022-10-05T05:03:42.657Z,34.50
2022-10-05T05:07:33.698Z,27.10
2022-10-05T05:11:24.308Z,31.90
2022-10-05T05:15:21.911Z,34.10
2022-10-05T05:19:22.004Z,44.70
2022-10-05T05:22:57.866Z,44.90
2022-10-05T05:27:02.202Z,87.20
2022-10-05T05:30:49.710Z,60.20
2022-10-05T05:35:17.587Z,84.80
2022-10-05T05:39:04.502Z,64.00
2022-10-05T05:42:29.497Z,44.80
2022-10-05T05:46:38.886Z,39.70
2022-10-05T05:50:15.941Z,64.10
2022-10-05T05:54:19.355Z,32.10
2022-10-05T05:57:50.083Z,27.00
2022-10-05T06:01:44.498Z,29.00
2022-10-05T06:05:32.390Z,29.40
2022-10-05T06:09:19.595Z,27.30
2022-10-05T06:12:50.502Z,32.40
2022-10-05T06:16:27.163Z,40.80
2022-10-05T06:20:37.686Z,30.10
2022-10-05T06:24:22.780Z,28.70
2022-10-05T06:28:08.434Z,34.00
2022-10-05T06:31:46.989Z,37.30
2022-10-05T06:35:53.464Z,34.70
2022-10-05T06:39:46.289Z,28.70
2022-10-05T06:43:40.801Z,31.70
2022-10-05T06:47:53.845Z,25.50
2022-10-05T06:52:03.368Z,43.40
2022-10-05T06:56:00.158Z,26.10
2022-10-05T06:59:54.741Z,29.10
2022-10-05T07:03:57.949Z,35.40
2022-10-05T07:07:51.795Z,26.90
2022-10-05T07:11:56.422Z,29.80
2022-10-05T07:15:38.165Z,23.00
2022-10-05T07:19:11.427Z,25.80
2022-10-05T07:22:55.366Z,26.70
2022-10-05T07:26:47.194Z,21.50
2022-10-05T07:30:15.095Z,30.80
2022-10-05T07:34:28.445Z,26.80
2022-10-05T07:37:57.349Z,33.50
2022-10-05T07:41:47.960Z,36.40
2022-10-05T07:45:50.776Z,28.80
2022-10-05T07:49:52.209Z,24.40
2022-10-05T07:53:37.392Z,36.80
2022-10-05T07:57:04.934Z,21.60
2022-10-05T08:01:04.052Z,24.00
2022-10-05T08:04:54.811Z,21.90
2022-10-05T08:08:31.425Z,26.80
2022-10-05T08:12:32.754Z,18.20
2022-10-05T08:15:58.133Z,17.30
2022-10-05T08:19:43.503Z,14.80
2022-10-05T08:23:25.334Z,13.80
2022-10-05T08:27:02.291Z,11.40
2022-10-05T08:30:23.894Z,6.50
2022-10-05T08:34:53.602Z,11.60
2022-10-05T08:38:18.732Z,8.30
2022-10-05T08:42:00.080Z,8.40
2022-10-05T08:45:36.825Z,7.70
2022-10-05T08:49:10.630Z,6.10
2022-10-05T08:53:38.043Z,7.60
2022-10-05T08:57:07.691Z,7.20
2022-10-05T09:01:13.050Z,8.50
2022-10-05T09:04:52.891Z,8.20
2022-10-05T09:08:35.504Z,7.90
2022-10-05T09:12:09.538Z,6.40
2022-10-05T09:16:02.729Z,5.70
2022-10-05T09:19:38.919Z,8.50
2022-10-05T09:23:17.331Z,5.60
2022-10-05T09:27:10.148Z,8.60
2022-10-05T09:31:08.241Z,6.20
2022-10-05T09:34:30.681Z,7.70
2022-10-05T09:38:25.064Z,7.70
2022-10-05T09:42:17.383Z,6.10
2022-10-05T09:46:16.346Z,6.00
2022-10-05T09:50:15.440Z,5.40
2022-10-05T09:54:03.022Z,4.80
2022-10-05T09:57:31.739Z,5.40
2022-10-05T10:01:47.873Z,5.80
2022-10-05T10:05:14.829Z,7.20
2022-10-05T10:09:16.998Z,6.20
2022-10-05T10:13:16.118Z,6.50
2022-10-05T10:16:59.539Z,4.20
2022-10-05T10:21:13.867Z,11.40
2022-10-05T10:25:12.247Z,5.70
2022-10-05T10:29:32.400Z,3.70
2022-10-05T10:33:01.938Z,4.40
2022-10-05T10:36:52.250Z,8.60
2022-10-05T10:40:35.116Z,3.10
2022-10-05T10:44:25.205Z,9.10
2022-10-05T10:47:57.022Z,9.40
2022-10-05T10:51:45.248Z,5.90
2022-10-05T10:55:22.005Z,4.70
2022-10-05T10:59:02.004Z,11.50
2022-10-05T11:03:19.792Z,3.80
2022-10-05T11:07:18.668Z,8.00
2022-10-05T11:10:48.801Z,6.10
2022-10-05T11:14:31.911Z,3.70
2022-10-05T11:18:20.187Z,6.80
2022-10-05T11:22:04.566Z,7.90
2022-10-05T11:25:44.505Z,2.60
2022-10-05T11:29:43.784Z,5.40
2022-10-05T11:33:44.162Z,3.30
2022-10-05T11:37:56.874Z,6.70
2022-10-05T11:42:03.499Z,9.20
2022-10-05T11:45:55.558Z,5.30
2022-10-05T11:49:26.608Z,3.30
2022-10-05T11:53:07.039Z,3.80
2022-10-05T11:56:44.925Z,6.00
2022-10-05T12:00:33.789Z,5.10
2022-10-05T12:04:20.008Z,6.10
2022-10-05T12:07:56.718Z,6.70
2022-10-05T12:11:46.505Z,8.20
2022-10-05T12:15:53.032Z,13.80
2022-10-05T12:19:27.276Z,5.80
2022-10-05T12:23:17.887Z,4.90
2022-10-05T12:26:55.245Z,4.90
2022-10-05T12:30:28.827Z,2.90
2022-10-05T12:34:05.575Z,4.30
2022-10-05T12:38:02.220Z,4.70
2022-10-05T12:41:53.472Z,6.00
2022-10-05T12:45:59.339Z,4.30
2022-10-05T12:49:57.837Z,9.40
2022-10-05T12:53:48.693Z,3.90
2022-10-05T12:57:35.570Z,2.90
2022-10-05T13:01:01.546Z,3.20
2022-10-05T13:05:09.980Z,3.40
2022-10-05T13:08:50.868Z,9.50
2022-10-05T13:12:29.962Z,7.60
2022-10-05T13:16:04.883Z,7.00
2022-10-05T13:19:56.536Z,18.50
2022-10-05T13:23:39.362Z,55.90
2022-10-05T13:27:40.560Z,11.20
2022-10-05T13:31:29.771Z,12.20
2022-10-05T13:35:06.732Z,19.60
2022-10-05T13:39:03.662Z,40.40
2022-10-05T13:42:52.806Z,46.20
2022-10-05T13:46:28.705Z,39.80
2022-10-05T13:50:00.376Z,35.20
2022-10-05T13:54:05.147Z,12.20
2022-10-05T13:57:35.316Z,19.00
2022-10-05T14:01:08.940Z,29.70
2022-10-05T14:05:00.903Z,24.20
2022-10-05T14:08:52.047Z,14.10
2022-10-05T14:12:18.799Z,10.00
2022-10-05T14:16:04.950Z,16.30
2022-10-05T14:19:32.586Z,9.20
2022-10-05T14:23:18.477Z,10.50
2022-10-05T14:27:31.040Z,8.00
2022-10-05T14:30:59.356Z,10.00
2022-10-05T14:34:39.425Z,33.20
2022-10-05T14:38:29.955Z,29.70
2022-10-05T14:41:51.119Z,24.10
2022-10-05T14:46:02.899Z,17.70
2022-10-05T14:50:13.350Z,18.60
2022-10-05T14:53:43.537Z,11.10
2022-10-05T14:57:39.792Z,11.10
2022-10-05T15:01:14.859Z,14.60
2022-10-05T15:05:37.461Z,7.60
2022-10-05T15:09:26.731Z,7.60
2022-10-05T15:12:52.879Z,19.20
2022-10-05T15:16:51.102Z,37.30
2022-10-05T15:20:43.155Z,35.30
2022-10-05T15:24:09.441Z,45.90
2022-10-05T15:28:18.962Z,26.00
2022-10-05T15:31:39.956Z,17.50
2022-10-05T15:35:48.992Z,16.50
2022-10-05T15:39:22.205Z,25.00
2022-10-05T15:42:46.715Z,24.60
2022-10-05T15:46:46.929Z,96.70
2022-10-05T15:50:28.480Z,51.00
2022-10-05T15:54:16.742Z,34.00
2022-10-05T15:58:14.894Z,25.20
2022-10-05T16:02:00.860Z,22.50
2022-10-05T16:06:05.227Z,20.10
2022-10-05T16:10:00.955Z,21.60
2022-10-05T16:13:39.871Z,51.30
2022-10-05T16:17:28.756Z,45.10
2022-10-05T16:20:53.524Z,53.70
2022-10-05T16:24:54.954Z,61.60
2022-10-05T16:29:03.688Z,51.30
2022-10-05T16:32:33.996Z,35.10
2022-10-05T16:36:31.394Z,32.20
2022-10-05T16:39:52.029Z,23.50
2022-10-05T16:43:54.546Z,35.60
2022-10-05T16:47:42.779Z,28.90
2022-10-05T16:51:30.698Z,28.60
2022-10-05T16:54:56.736Z,28.50
2022-10-05T16:59:08.873Z,29.00
2022-10-05T17:02:41.592Z,26.50
2022-10-05T17:06:17.604Z,22.40
2022-10-05T17:10:17.985Z,52.20
2022-10-05T17:14:01.434Z,53.20
2022-10-05T17:17:57.171Z,31.40
2022-10-05T17:21:31.537Z,38.80
2022-10-05T17:25:00.954Z,38.40
2022-10-05T17:29:09.777Z,36.90
2022-10-05T17:32:36.224Z,56.60
2022-10-05T17:36:18.122Z,62.10
2022-10-05T17:39:49.105Z,74.00
2022-10-05T17:43:28.035Z,46.00
2022-10-05T17:47:55.852Z,95.30
2022-10-05T17:51:53.872Z,135.20
2022-10-05T17:55:33.018Z,50.70
2022-10-05T17:59:04.340Z,28.70
2022-10-05T18:02:39.933Z,31.90
2022-10-05T18:06:26.031Z,39.20
2022-10-05T18:09:58.757Z,31.40
2022-10-05T18:13:43.960Z,34.10
2022-10-05T18:17:41.594Z,43.30
2022-10-05T18:21:29.893Z,29.20
2022-10-05T18:25:07.107Z,36.10
2022-10-05T18:29:13.791Z,48.00
2022-10-05T18:32:52.464Z,128.40
2022-10-05T18:36:37.544Z,95.00
2022-10-05T18:40:12.442Z,61.70
2022-10-05T18:43:55.142Z,52.50
2022-10-05T18:48:13.188Z,50.20
2022-10-05T18:51:51.660Z,34.90
2022-10-05T18:55:20.940Z,28.80
2022-10-05T18:59:36.358Z,33.50
2022-10-05T19:03:03.188Z,31.20
2022-10-05T19:06:49.254Z,32.40
2022-10-05T19:10:45.996Z,27.20
2022-10-05T19:14:24.683Z,27.90
2022-10-05T19:18:12.346Z,23.80
2022-10-05T19:22:02.029Z,27.10
2022-10-05T19:26:31.303Z,29.80
2022-10-05T19:30:26.786Z,27.90
2022-10-05T19:33:56.713Z,24.80
2022-10-05T19:38:23.880Z,16.90
2022-10-05T19:42:09.630Z,20.60
2022-10-05T19:45:46.925Z,25.40
2022-10-05T19:49:11.746Z,24.80
2022-10-05T19:52:49.900Z,11.30
2022-10-05T19:56:25.800Z,13.30
2022-10-05T19:59:59.470Z,29.60
2022-10-05T20:03:41.116Z,13.10
2022-10-05T20:07:33.799Z,18.60
2022-10-05T20:11:10.691Z,44.80
2022-10-05T20:14:33.479Z,58.20
2022-10-05T20:18:55.503Z,19.50
2022-10-05T20:22:43.399Z,13.00
2022-10-05T20:26:23.495Z,6.20
2022-10-05T20:29:47.488Z,8.90
2022-10-05T20:33:41.477Z,14.70
2022-10-05T20:37:02.103Z,11.20
2022-10-05T20:40:40.068Z,18.90
2022-10-05T20:44:19.906Z,12.70
2022-10-05T20:47:52.430Z,15.90
2022-10-05T20:51:29.235Z,12.10
2022-10-05T20:55:11.324Z,9.60
2022-10-05T20:59:01.472Z,7.90
2022-10-05T21:02:43.534Z,12.70
2022-10-05T21:06:04.085Z,9.30
2022-10-05T21:09:42.549Z,7.60
2022-10-05T21:13:18.566Z,8.60
2022-10-05T21:16:54.413Z,6.80
2022-10-05T21:20:31.105Z,10.70
2022-10-05T21:24:09.945Z,7.60
2022-10-05T21:27:46.516Z,8.40
2022-10-05T21:31:21.978Z,10.60
2022-10-05T21:35:17.134Z,12.10
2022-10-05T21:38:56.552Z,10.40
2022-10-05T21:42:35.744Z,12.50
2022-10-05T21:45:56.686Z,16.30
2022-10-05T21:49:34.045Z,20.40
2022-10-05T21:53:14.639Z,12.40
2022-10-05T21:56:50.278Z,11.40
2022-10-05T22:00:23.643Z,12.50
2022-10-05T22:04:19.176Z,15.70
2022-10-05T22:07:40.139Z,13.70
2022-10-05T22:11:18.291Z,12.70
2022-10-05T22:15:12.869Z,11.30
2022-10-05T22:18:33.566Z,10.70
2022-10-05T22:22:12.042Z,16.30
2022-10-05T22:25:48.121Z,17.40
2022-10-05T22:29:27.334Z,16.40
2022-10-05T22:33:00.477Z,12.20
2022-10-05T22:36:37.987Z,13.50
2022-10-05T22:40:14.393Z,13.40
2022-10-05T22:43:52.062Z,15.40
2022-10-05T22:47:27.858Z,15.80
2022-10-05T22:51:05.135Z,12.00
2022-10-05T22:54:39.405Z,12.20
2022-10-05T22:58:18.085Z,13.90
2022-10-05T23:01:54.862Z,13.20
2022-10-05T23:05:32.451Z,10.90
2022-10-05T23:09:08.459Z,12.70
2022-10-05T23:12:56.101Z,14.30
2022-10-05T23:16:40.947Z,8.90
2022-10-05T23:20:01.776Z,8.30
2022-10-05T23:23:43.738Z,8.40
2022-10-05T23:27:15.171Z,10.80
2022-10-05T23:30:51.861Z,6.10
2022-10-05T23:34:28.817Z,7.10
2022-10-05T23:38:24.899Z,6.50
2022-10-05T23:41:45.919Z,4.10
2022-10-05T23:45:22.543Z,7.80
2022-10-05T23:48:59.415Z,4.30
2022-10-05T23:52:36.946Z,3.00
2022-10-05T23:56:13.340Z,5.20
